Time;durP1;ratioP1;P1;durP2;ratioP2;P2;SDS_P1;SDS_P2;PMS_P1;PMS_P2;Temp;Humidity;BMP_temperature;BMP_pressure;BME280_temperature;BME280_humidity;BME280_pressure;Samples;Min_cycle;Max_cycle;Signal;HPM_P1;HPM_P2
2023/02/12 00:01:39;;;;;;;7.93;2.00;;;;;;;-142.37;100.00;59669.53;5093882;28;20062;-60
2023/02/12 00:04:04;;;;;;;6.70;2.90;;;;;;;-142.37;100.00;59669.53;5095390;28;20388;-58
2023/02/12 00:06:30;;;;;;;5.07;2.30;;;;;;;-142.37;100.00;59669.53;5095144;28;20032;-57
2023/02/12 00:08:58;;;;;;;6.30;2.23;;;;;;;-142.37;100.00;59669.53;5095127;28;20058;-59
2023/02/12 00:11:27;;;;;;;11.50;4.67;;;;;;;-142.37;100.00;59669.53;5094095;28;20039;-59
2023/02/12 00:13:53;;;;;;;9.13;2.43;;;;;;;-142.37;100.00;59669.53;5095964;28;20522;-59
2023/02/12 00:16:25;;;;;;;10.60;2.73;;;;;;;-142.37;100.00;59669.53;5094348;28;20028;-59
2023/02/12 00:18:52;;;;;;;5.57;2.40;;;;;;;-142.37;100.00;59669.53;5093663;28;20032;-60
2023/02/12 00:21:19;;;;;;;6.17;2.17;;;;;;;-142.37;100.00;59669.53;5093193;28;20039;-60
2023/02/12 00:23:44;;;;;;;4.63;1.97;;;;;;;-142.37;100.00;59669.53;5093085;28;20024;-58
2023/02/12 00:26:13;;;;;;;4.17;1.87;;;;;;;-142.37;100.00;59669.53;5093643;28;20038;-58
2023/02/12 00:28:40;;;;;;;6.17;1.80;;;;;;;-142.37;100.00;59669.53;5093209;28;20111;-60
2023/02/12 00:31:08;;;;;;;7.10;2.00;;;;;;;-142.37;100.00;59669.53;5094549;28;20034;-60
2023/02/12 00:33:33;;;;;;;10.37;2.23;;;;;;;-142.37;100.00;59669.53;5093120;28;20047;-59
2023/02/12 00:35:59;;;;;;;7.70;3.10;;;;;;;-142.37;100.00;59669.53;5094671;28;20468;-59
2023/02/12 00:38:25;;;;;;;7.60;2.47;;;;;;;-142.37;100.00;59669.53;5094273;28;20028;-58
2023/02/12 00:40:50;;;;;;;9.70;3.07;;;;;;;-142.37;100.00;59669.53;5094763;28;20039;-59
2023/02/12 00:43:16;;;;;;;7.73;2.37;;;;;;;-142.37;100.00;59669.53;5092985;28;20071;-59
2023/02/12 00:45:44;;;;;;;6.67;2.10;;;;;;;-142.37;100.00;59669.53;5093084;28;20035;-59
2023/02/12 00:48:09;;;;;;;7.07;2.60;;;;;;;-142.37;100.00;59669.53;5094429;28;20038;-60
2023/02/12 00:50:35;;;;;;;6.27;2.13;;;;;;;-142.37;100.00;59669.53;5094140;28;20115;-62
2023/02/12 00:53:01;;;;;;;8.33;2.10;;;;;;;-142.37;100.00;59669.53;5095254;28;20028;-61
2023/02/12 00:55:26;;;;;;;9.33;2.77;;;;;;;-142.37;100.00;59669.53;5094401;28;20028;-63
2023/02/12 00:57:52;;;;;;;8.43;2.30;;;;;;;-142.37;100.00;59669.53;5095294;28;20036;-60
2023/02/12 01:00:18;;;;;;;6.80;2.07;;;;;;;-142.37;100.00;59669.53;5095613;28;20100;-61
2023/02/12 01:02:44;;;;;;;12.23;2.70;;;;;;;-142.37;100.00;59669.53;5095370;28;20032;-61
2023/02/12 01:05:09;;;;;;;6.53;1.80;;;;;;;-142.37;100.00;59669.53;5093199;28;20032;-64
2023/02/12 01:07:37;;;;;;;6.93;1.90;;;;;;;-142.37;100.00;59669.53;5096105;28;20040;-61
2023/02/12 01:10:04;;;;;;;2.47;0.90;;;;;;;-142.37;100.00;59669.53;5094885;28;20119;-58
2023/02/12 01:12:31;;;;;;;3.63;1.07;;;;;;;-142.37;100.00;59669.53;5094322;28;20102;-58
2023/02/12 01:14:56;;;;;;;9.27;1.83;;;;;;;-142.37;100.00;59669.53;5072240;28;20042;-60
2023/02/12 01:17:22;;;;;;;6.50;1.20;;;;;;;-142.37;100.00;59669.53;5074065;28;20032;-59
2023/02/12 01:19:48;;;;;;;7.37;1.20;;;;;;;-142.37;100.00;59669.53;5072920;28;20472;-61
2023/02/12 01:22:14;;;;;;;3.57;0.97;;;;;;;-142.37;100.00;59669.53;5075094;28;20032;-63
2023/02/12 01:24:39;;;;;;;9.93;1.47;;;;;;;-142.37;100.00;59669.53;5074086;28;20025;-58
2023/02/12 01:27:05;;;;;;;3.17;0.90;;;;;;;-142.37;100.00;59669.53;5073749;28;20027;-60
2023/02/12 01:29:32;;;;;;;5.27;1.03;;;;;;;-142.37;100.00;59669.53;5072140;28;20519;-61
2023/02/12 01:31:57;;;;;;;7.50;1.47;;;;;;;-142.37;100.00;59669.53;5074085;28;20032;-58
2023/02/12 01:34:23;;;;;;;3.83;0.93;;;;;;;-142.37;100.00;59669.53;5073239;28;20416;-60
2023/02/12 01:36:49;;;;;;;3.17;0.60;;;;;;;-142.37;100.00;59669.53;5073734;28;20077;-60
2023/02/12 01:39:14;;;;;;;5.17;0.83;;;;;;;-142.37;100.00;59669.53;5072079;28;20028;-59
2023/02/12 01:41:43;;;;;;;8.27;1.07;;;;;;;-142.37;100.00;59669.53;5073405;28;20036;-61
2023/02/12 01:44:14;;;;;;;3.70;1.20;;;;;;;-142.37;100.00;59669.53;5073648;28;20060;-59
2023/02/12 01:46:41;;;;;;;4.77;1.73;;;;;;;-142.37;100.00;59669.53;5071638;28;20634;-59
2023/02/12 01:49:29;;;;;;;3.93;1.00;;;;;;;-142.37;100.00;59669.53;5073126;28;20029;-58
2023/02/12 01:52:01;;;;;;;4.63;0.87;;;;;;;-142.37;100.00;59669.53;5072390;28;20485;-60
2023/02/12 01:54:28;;;;;;;2.50;1.07;;;;;;;-142.37;100.00;59669.53;5071858;28;20020;-57
2023/02/12 01:56:54;;;;;;;5.43;0.77;;;;;;;-142.37;100.00;59669.53;5072223;28;20416;-59
2023/02/12 01:59:21;;;;;;;4.60;1.23;;;;;;;-142.37;100.00;59669.53;5071949;28;20036;-59
2023/02/12 02:01:46;;;;;;;5.33;1.13;;;;;;;-142.37;100.00;59669.53;5072807;28;20027;-57
2023/02/12 02:04:16;;;;;;;4.93;1.17;;;;;;;-142.37;100.00;59669.53;5072104;28;20036;-60
2023/02/12 02:06:57;;;;;;;3.80;1.03;;;;;;;-142.37;100.00;59669.53;5073166;28;20086;-58
2023/02/12 02:09:24;;;;;;;3.83;0.77;;;;;;;-142.37;100.00;59669.53;5072733;28;20029;-61
2023/02/12 02:14:35;;;;;;;4.27;0.70;;;;;;;-142.37;100.00;59669.53;5089439;28;20055;-59
2023/02/12 02:17:26;;;;;;;6.67;1.23;;;;;;;-142.37;100.00;59669.53;5092754;28;20134;-60
2023/02/12 02:20:21;;;;;;;4.00;0.83;;;;;;;-142.37;100.00;59669.53;5091544;28;20028;-59
2023/02/12 02:22:59;;;;;;;3.70;0.73;;;;;;;-142.37;100.00;59669.53;5091541;28;20430;-58
2023/02/12 02:25:56;;;;;;;1.63;0.63;;;;;;;-142.37;100.00;59669.53;5091487;28;20031;-59
2023/02/12 02:28:54;;;;;;;3.10;0.50;;;;;;;-142.37;100.00;59669.53;5092484;28;20020;-58
2023/02/12 02:31:44;;;;;;;2.20;1.10;;;;;;;-142.37;100.00;59669.53;5092259;28;20028;-59
2023/02/12 02:34:23;;;;;;;2.87;0.77;;;;;;;-142.37;100.00;59669.53;5092777;28;20024;-62
2023/02/12 02:37:14;;;;;;;4.77;0.90;;;;;;;-142.37;100.00;59669.53;5092806;28;20024;-57
2023/02/12 02:39:51;;;;;;;1.97;0.73;;;;;;;-142.37;100.00;59669.53;5092759;28;20032;-58
2023/02/12 02:42:32;;;;;;;4.23;1.53;;;;;;;-142.37;100.00;59669.53;5092667;28;20073;-58
2023/02/12 02:45:20;;;;;;;5.10;1.10;;;;;;;-142.37;100.00;59669.53;5092271;28;20039;-58
2023/02/12 02:48:22;;;;;;;5.23;0.73;;;;;;;-142.37;100.00;59669.53;5091144;28;20480;-60
2023/02/12 02:51:00;;;;;;;3.80;0.93;;;;;;;-142.37;100.00;59669.53;5061254;28;20062;-59
2023/02/12 02:53:31;;;;;;;4.20;0.80;;;;;;;-142.37;100.00;59669.53;5095125;28;20036;-60
2023/02/12 02:56:00;;;;;;;7.03;1.23;;;;;;;-142.37;100.00;59669.53;5094973;28;20130;-61
2023/02/12 02:58:42;;;;;;;4.30;0.60;;;;;;;-142.37;100.00;59669.53;5097284;28;20032;-61
2023/02/12 03:01:19;;;;;;;2.20;0.80;;;;;;;-142.37;100.00;59669.53;5096368;28;20027;-59
2023/02/12 03:04:08;;;;;;;1.83;0.37;;;;;;;-142.37;100.00;59669.53;5097072;28;20028;-60
2023/02/12 03:06:45;;;;;;;1.93;0.80;;;;;;;-142.37;100.00;59669.53;5094086;28;20039;-59
2023/02/12 03:09:22;;;;;;;2.80;0.80;;;;;;;-142.37;100.00;59669.53;5094844;28;20031;-59
2023/02/12 03:11:49;;;;;;;4.00;0.90;;;;;;;-142.37;100.00;59669.53;5094573;28;20020;-60
2023/02/12 03:14:21;;;;;;;2.53;0.83;;;;;;;-142.37;100.00;59669.53;5095631;28;20496;-58
2023/02/12 03:17:05;;;;;;;3.27;0.60;;;;;;;-142.37;100.00;59669.53;5095862;28;20032;-60
2023/02/12 03:19:36;;;;;;;3.00;0.70;;;;;;;-142.37;100.00;59669.53;5094642;28;20025;-60
2023/02/12 03:22:13;;;;;;;2.00;0.53;;;;;;;-142.37;100.00;59669.53;5096006;28;20107;-59
2023/02/12 03:24:57;;;;;;;1.17;0.40;;;;;;;-142.37;100.00;59669.53;5095556;28;20093;-58
2023/02/12 03:27:33;;;;;;;1.40;0.53;;;;;;;-142.37;100.00;59669.53;5095462;28;20020;-59
2023/02/12 03:30:00;;;;;;;2.87;0.73;;;;;;;-142.37;100.00;59669.53;5095579;28;20476;-60
2023/02/12 03:32:45;;;;;;;2.27;0.67;;;;;;;-142.37;100.00;59669.53;5094460;28;20036;-58
2023/02/12 03:35:30;;;;;;;2.37;0.33;;;;;;;-142.37;100.00;59669.53;5093981;28;20028;-59
2023/02/12 03:38:04;;;;;;;1.43;0.97;;;;;;;-142.37;100.00;59669.53;5095324;28;20032;-59
2023/02/12 03:40:39;;;;;;;3.23;0.70;;;;;;;-142.37;100.00;59669.53;5094181;28;20098;-59
2023/02/12 03:43:18;;;;;;;3.88;1.00;;;;;;;-142.37;100.00;59669.53;5095263;28;20309;-59
2023/02/12 03:45:56;;;;;;;4.47;0.67;;;;;;;-142.37;100.00;59669.53;5094261;28;20032;-60
2023/02/12 03:48:29;;;;;;;2.63;0.83;;;;;;;-142.37;100.00;59669.53;5095823;28;20020;-60
2023/02/12 03:51:23;;;;;;;3.10;0.67;;;;;;;-142.37;100.00;59669.53;5094023;28;20028;-60
2023/02/12 03:53:50;;;;;;;3.23;0.73;;;;;;;-142.37;100.00;59669.53;5094050;28;20377;-61
2023/02/12 03:56:24;;;;;;;2.30;0.90;;;;;;;-142.37;100.00;59669.53;5095461;28;20024;-58
2023/02/12 03:58:50;;;;;;;2.73;0.50;;;;;;;-142.37;100.00;59669.53;5094323;28;20028;-58
2023/02/12 04:01:16;;;;;;;2.85;0.90;;;;;;;-142.37;100.00;59669.53;5095417;28;20476;-59
2023/02/12 04:03:42;;;;;;;2.80;1.08;;;;;;;-142.37;100.00;59669.53;5095136;28;20032;-59
2023/02/12 04:06:28;;;;;;;3.22;0.90;;;;;;;-142.37;100.00;59669.53;5095786;28;20032;-59
2023/02/12 04:08:58;;;;;;;4.68;0.60;;;;;;;-142.37;100.00;59669.53;5093769;28;20020;-59
2023/02/12 04:11:29;;;;;;;3.33;0.77;;;;;;;-142.37;100.00;59669.53;5095886;28;20608;-59
2023/02/12 04:14:14;;;;;;;5.53;0.80;;;;;;;-142.37;100.00;59669.53;5094158;28;20051;-59
2023/02/12 04:16:47;;;;;;;4.00;0.73;;;;;;;-142.37;100.00;59669.53;5093886;28;20047;-59
2023/02/12 04:19:19;;;;;;;2.53;0.43;;;;;;;-142.37;100.00;59669.53;5096935;28;20065;-60
2023/02/12 04:22:17;;;;;;;3.03;0.50;;;;;;;-142.37;100.00;59669.53;5096298;28;20123;-60
2023/02/12 04:24:54;;;;;;;5.28;1.13;;;;;;;-142.37;100.00;59669.53;5093579;28;20084;-59
2023/02/12 04:27:34;;;;;;;6.55;1.05;;;;;;;-142.37;100.00;59669.53;5094649;28;20028;-59
2023/02/12 04:30:12;;;;;;;4.70;1.25;;;;;;;-142.37;100.00;59669.53;5094138;28;20032;-59
2023/02/12 04:32:51;;;;;;;3.25;0.70;;;;;;;-142.37;100.00;59669.53;5095182;28;20361;-58
2023/02/12 04:35:26;;;;;;;5.00;0.77;;;;;;;-142.37;100.00;59669.53;5095755;28;20080;-60
2023/02/12 04:38:01;;;;;;;4.20;1.25;;;;;;;-142.37;100.00;59669.53;5096242;28;20416;-60
2023/02/12 04:40:27;;;;;;;2.58;1.02;;;;;;;-142.37;100.00;59669.53;5094788;28;20028;-61
2023/02/12 04:42:53;;;;;;;3.67;0.65;;;;;;;-142.37;100.00;59669.53;5096902;28;20042;-58
2023/02/12 04:45:28;;;;;;;4.35;0.70;;;;;;;-142.37;100.00;59669.53;5096236;28;20059;-60
2023/02/12 04:47:54;;;;;;;4.10;0.80;;;;;;;-142.37;100.00;59669.53;5094988;28;20100;-59
2023/02/12 04:50:20;;;;;;;3.85;0.70;;;;;;;-142.37;100.00;59669.53;5096730;28;20032;-59
2023/02/12 04:52:46;;;;;;;4.10;0.80;;;;;;;-142.37;100.00;59669.53;5094211;28;20430;-58
2023/02/12 04:55:12;;;;;;;4.38;0.90;;;;;;;-142.37;100.00;59669.53;5093718;28;20085;-59
2023/02/12 04:57:38;;;;;;;4.28;0.68;;;;;;;-142.37;100.00;59669.53;5093977;28;20055;-58
2023/02/12 05:00:06;;;;;;;2.83;0.52;;;;;;;-142.37;100.00;59669.53;5092746;28;20443;-59
2023/02/12 05:02:33;;;;;;;3.10;0.75;;;;;;;-142.37;100.00;59669.53;5092623;28;20062;-59
2023/02/12 05:04:59;;;;;;;5.25;1.10;;;;;;;-142.37;100.00;59669.53;5093626;28;20020;-59
2023/02/12 05:07:24;;;;;;;4.70;0.90;;;;;;;-142.37;100.00;59669.53;5093653;28;20361;-59
2023/02/12 05:09:50;;;;;;;3.30;0.85;;;;;;;-142.37;100.00;59669.53;5093566;28;20028;-60
2023/02/12 05:12:16;;;;;;;2.83;1.17;;;;;;;-142.37;100.00;59669.53;5093927;28;20131;-60
2023/02/12 05:14:41;;;;;;;4.07;1.15;;;;;;;-142.37;100.00;59669.53;5091100;28;20078;-61
2023/02/12 05:17:07;;;;;;;4.47;0.87;;;;;;;-142.37;100.00;59669.53;5092120;28;20535;-59
2023/02/12 05:19:33;;;;;;;4.05;1.00;;;;;;;-142.37;100.00;59669.53;5092173;28;20107;-59
2023/02/12 05:21:58;;;;;;;3.13;0.77;;;;;;;-142.37;100.00;59669.53;5094095;28;20499;-58
2023/02/12 05:24:24;;;;;;;3.90;0.70;;;;;;;-142.37;100.00;59669.53;5093749;28;20031;-59
2023/02/12 05:26:50;;;;;;;3.72;0.90;;;;;;;-142.37;100.00;59669.53;5092341;28;20039;-58
2023/02/12 05:29:17;;;;;;;2.03;0.90;;;;;;;-142.37;100.00;59669.53;5093076;28;20570;-59
2023/02/12 05:31:42;;;;;;;2.72;0.75;;;;;;;-142.37;100.00;59669.53;5093252;28;20024;-58
2023/02/12 05:34:12;;;;;;;5.07;1.17;;;;;;;-142.37;100.00;59669.53;5091653;28;20507;-59
2023/02/12 05:36:39;;;;;;;4.35;0.77;;;;;;;-142.37;100.00;59669.53;5093479;28;20046;-58
2023/02/12 05:39:06;;;;;;;3.97;0.85;;;;;;;-142.37;100.00;59669.53;5091831;28;20031;-60
2023/02/12 05:41:34;;;;;;;2.83;0.73;;;;;;;-142.37;100.00;59669.53;5091769;28;20032;-60
2023/02/12 05:44:05;;;;;;;6.43;1.10;;;;;;;-142.37;100.00;59669.53;5091838;28;20480;-60
2023/02/12 05:46:31;;;;;;;3.88;0.88;;;;;;;-142.37;100.00;59669.53;5092910;28;20069;-59
2023/02/12 05:48:57;;;;;;;6.57;1.00;;;;;;;-142.37;100.00;59669.53;5093020;28;20032;-58
2023/02/12 05:51:25;;;;;;;4.80;0.93;;;;;;;-142.37;100.00;59669.53;5091501;28;20541;-60
2023/02/12 05:53:55;;;;;;;5.80;1.55;;;;;;;-142.37;100.00;59669.53;5092637;28;20024;-59
2023/02/12 05:56:23;;;;;;;6.38;1.20;;;;;;;-142.37;100.00;59669.53;5091580;28;20031;-60
2023/02/12 05:59:07;;;;;;;4.88;0.98;;;;;;;-142.37;100.00;59669.53;5092700;28;20369;-59
2023/02/12 06:01:36;;;;;;;3.42;0.70;;;;;;;-142.37;100.00;59669.53;5091662;28;20028;-58
2023/02/12 06:04:05;;;;;;;3.90;0.93;;;;;;;-142.37;100.00;59669.53;5092975;28;20031;-60
2023/02/12 06:06:31;;;;;;;4.82;0.93;;;;;;;-142.37;100.00;59669.53;5091826;28;20028;-60
2023/02/12 06:08:58;;;;;;;5.20;0.90;;;;;;;-142.37;100.00;59669.53;5093766;28;20552;-58
2023/02/12 06:11:24;;;;;;;3.22;0.52;;;;;;;-142.37;100.00;59669.53;5093670;28;20115;-59
2023/02/12 06:13:50;;;;;;;3.30;0.82;;;;;;;-142.37;100.00;59669.53;5092913;28;20044;-58
2023/02/12 06:16:21;;;;;;;2.22;0.70;;;;;;;-142.37;100.00;59669.53;5092248;28;20031;-58
2023/02/12 06:18:47;;;;;;;5.25;0.52;;;;;;;-142.37;100.00;59669.53;5092140;28;20032;-58
2023/02/12 06:21:14;;;;;;;3.72;0.60;;;;;;;-142.37;100.00;59669.53;5093027;28;20031;-59
2023/02/12 06:23:39;;;;;;;3.88;0.75;;;;;;;-142.37;100.00;59669.53;5093232;28;20042;-58
2023/02/12 06:26:05;;;;;;;4.25;0.77;;;;;;;-142.37;100.00;59669.53;5091407;28;20028;-60
2023/02/12 06:28:31;;;;;;;4.28;0.60;;;;;;;-142.37;100.00;59669.53;5091214;28;20036;-59
2023/02/12 06:30:56;;;;;;;2.78;0.73;;;;;;;-142.37;100.00;59669.53;5091320;28;20028;-59
2023/02/12 06:33:22;;;;;;;3.83;0.82;;;;;;;-142.37;100.00;59669.53;5091394;28;20028;-58
2023/02/12 06:35:48;;;;;;;6.05;1.05;;;;;;;-142.37;100.00;59669.53;5092120;28;20101;-58
2023/02/12 06:38:13;;;;;;;3.08;0.98;;;;;;;-142.37;100.00;59669.53;5092352;28;20495;-61
2023/02/12 06:40:39;;;;;;;4.63;1.75;;;;;;;-142.37;100.00;59669.53;5092352;28;20582;-59
2023/02/12 06:43:06;;;;;;;6.68;0.95;;;;;;;-142.37;100.00;59669.53;5090896;28;20071;-60
2023/02/12 06:45:32;;;;;;;10.90;0.95;;;;;;;-142.37;100.00;59669.53;5091411;28;20052;-60
2023/02/12 06:47:58;;;;;;;4.75;1.00;;;;;;;-142.37;100.00;59669.53;5092361;28;20024;-59
2023/02/12 06:50:25;;;;;;;7.35;0.90;;;;;;;-142.37;100.00;59669.53;5091523;28;20127;-59
2023/02/12 06:52:50;;;;;;;4.38;1.25;;;;;;;-142.37;100.00;59669.53;5091470;28;20541;-59
2023/02/12 06:55:16;;;;;;;3.60;0.50;;;;;;;-142.37;100.00;59669.53;5091890;28;20035;-59
2023/02/12 06:57:42;;;;;;;3.22;0.82;;;;;;;-142.37;100.00;59669.53;5092170;28;20063;-59
2023/02/12 07:00:09;;;;;;;4.70;1.13;;;;;;;-142.37;100.00;59669.53;5090823;28;20033;-59
2023/02/12 07:02:35;;;;;;;4.13;0.88;;;;;;;-142.37;100.00;59669.53;5092042;28;20468;-59
2023/02/12 07:05:00;;;;;;;2.22;0.98;;;;;;;-142.37;100.00;59669.53;5091984;28;20093;-60
2023/02/12 07:07:27;;;;;;;3.72;0.70;;;;;;;-142.37;100.00;59669.53;5090922;28;20492;-60
2023/02/12 07:09:53;;;;;;;6.85;1.30;;;;;;;-142.37;100.00;59669.53;5092106;28;20490;-59
2023/02/12 07:12:18;;;;;;;3.40;1.13;;;;;;;-142.37;100.00;59669.53;5091806;28;20061;-62
2023/02/12 07:14:44;;;;;;;5.88;1.05;;;;;;;-142.37;100.00;59669.53;5090071;28;20666;-60
2023/02/12 07:17:10;;;;;;;3.40;0.50;;;;;;;-142.37;100.00;59669.53;5090385;28;20040;-64
2023/02/12 07:19:36;;;;;;;3.97;1.13;;;;;;;-142.37;100.00;59669.53;5092110;28;20040;-58
2023/02/12 07:22:02;;;;;;;4.90;1.00;;;;;;;-142.37;100.00;59669.53;5091976;28;20388;-60
2023/02/12 07:24:28;;;;;;;2.72;0.60;;;;;;;-142.37;100.00;59669.53;5090387;28;20038;-60
2023/02/12 07:26:54;;;;;;;7.05;0.98;;;;;;;-142.37;100.00;59669.53;5090548;28;20027;-59
2023/02/12 07:29:20;;;;;;;2.95;0.82;;;;;;;-142.37;100.00;59669.53;5091683;28;20345;-58
2023/02/12 07:31:47;;;;;;;3.33;1.23;;;;;;;-142.37;100.00;59669.53;5092196;28;20357;-59
2023/02/12 07:34:12;;;;;;;3.67;0.93;;;;;;;-142.37;100.00;59669.53;5092551;28;20036;-61
2023/02/12 07:36:38;;;;;;;6.93;1.05;;;;;;;-142.37;100.00;59669.53;5095341;28;20032;-60
2023/02/12 07:39:04;;;;;;;3.05;0.77;;;;;;;-142.37;100.00;59669.53;5096887;28;20046;-59
2023/02/12 07:41:32;;;;;;;2.00;0.57;;;;;;;-142.37;100.00;59669.53;5096068;28;20035;-61
2023/02/12 07:44:08;;;;;;;5.90;1.15;;;;;;;-142.37;100.00;59669.53;5095785;28;20016;-59
2023/02/12 07:46:39;;;;;;;6.00;0.80;;;;;;;-142.37;100.00;59669.53;5094046;28;20097;-58
2023/02/12 07:49:09;;;;;;;8.13;1.92;;;;;;;-142.37;100.00;59669.53;5094959;28;20035;-59
2023/02/12 07:51:36;;;;;;;3.70;1.80;;;;;;;-142.37;100.00;59669.53;5094770;28;20028;-59
2023/02/12 07:54:02;;;;;;;4.15;1.08;;;;;;;-142.37;100.00;59669.53;5096032;28;20063;-60
2023/02/12 07:56:31;;;;;;;6.55;1.13;;;;;;;-142.37;100.00;59669.53;5094279;28;20035;-61
2023/02/12 07:59:00;;;;;;;8.30;1.65;;;;;;;-142.37;100.00;59669.53;5093504;28;20130;-60
2023/02/12 08:01:28;;;;;;;5.68;1.48;;;;;;;-142.37;100.00;59669.53;5094947;28;20100;-58
2023/02/12 08:03:58;;;;;;;7.32;1.40;;;;;;;-142.37;100.00;59669.53;5093638;28;20616;-56
2023/02/12 08:06:26;;;;;;;5.78;0.70;;;;;;;-142.37;100.00;59669.53;5093287;28;20055;-60
2023/02/12 08:08:58;;;;;;;4.47;1.55;;;;;;;-142.37;100.00;59669.53;5094891;28;20024;-60
2023/02/12 08:11:25;;;;;;;6.88;1.25;;;;;;;-142.37;100.00;59669.53;5094546;28;20070;-61
2023/02/12 08:13:51;;;;;;;2.65;0.80;;;;;;;-142.37;100.00;59669.53;5094308;28;20031;-60
2023/02/12 08:16:22;;;;;;;8.45;1.33;;;;;;;-142.37;100.00;59669.53;5094619;28;20020;-58
2023/02/12 08:18:49;;;;;;;5.47;1.27;;;;;;;-142.37;100.00;59669.53;5092900;28;20538;-59
2023/02/12 08:21:18;;;;;;;4.20;1.10;;;;;;;-142.37;100.00;59669.53;5094771;28;20036;-64
2023/02/12 08:23:45;;;;;;;3.60;0.93;;;;;;;-142.37;100.00;59669.53;5094789;28;20039;-58
2023/02/12 08:26:15;;;;;;;4.97;0.85;;;;;;;-142.37;100.00;59669.53;5094683;28;20020;-59
2023/02/12 08:28:45;;;;;;;4.75;0.70;;;;;;;-142.37;100.00;59669.53;5092524;28;20035;-58
2023/02/12 08:31:17;;;;;;;11.25;1.55;;;;;;;-142.37;100.00;59669.53;5092570;28;20035;-60
2023/02/12 08:33:44;;;;;;;5.47;1.15;;;;;;;-142.37;100.00;59669.53;5094192;28;20036;-60
2023/02/12 08:36:13;;;;;;;7.20;1.42;;;;;;;-142.37;100.00;59669.53;5092914;28;20016;-58
2023/02/12 08:38:39;;;;;;;7.28;1.25;;;;;;;-142.37;100.00;59669.53;5094014;28;20047;-59
2023/02/12 08:41:08;;;;;;;7.88;1.27;;;;;;;-142.37;100.00;59669.53;5092141;28;20028;-59
2023/02/12 08:43:36;;;;;;;10.25;1.80;;;;;;;-142.37;100.00;59669.53;5093664;28;20111;-59
2023/02/12 08:46:10;;;;;;;4.93;1.20;;;;;;;-142.37;100.00;59669.53;5093702;28;20107;-61
2023/02/12 08:48:36;;;;;;;6.38;1.33;;;;;;;-142.37;100.00;59669.53;5092389;28;20024;-58
2023/02/12 08:51:10;;;;;;;7.93;1.60;;;;;;;-142.37;100.00;59669.53;5093627;28;20031;-59
2023/02/12 08:53:38;;;;;;;10.65;2.00;;;;;;;-142.37;100.00;59669.53;5093142;28;20043;-59
2023/02/12 08:56:04;;;;;;;6.63;1.77;;;;;;;-142.37;100.00;59669.53;5093408;28;20105;-59
2023/02/12 08:58:30;;;;;;;12.70;1.50;;;;;;;-142.37;100.00;59669.53;5093254;28;20106;-60
2023/02/12 09:00:56;;;;;;;8.90;1.85;;;;;;;-142.37;100.00;59669.53;5092289;28;20062;-60
2023/02/12 09:03:22;;;;;;;8.27;1.80;;;;;;;-142.37;100.00;59669.53;5093686;28;20487;-59
2023/02/12 09:05:48;;;;;;;14.07;1.88;;;;;;;-142.37;100.00;59669.53;5093454;28;20024;-58
2023/02/12 09:08:14;;;;;;;11.77;2.30;;;;;;;-142.37;100.00;59669.53;5093694;28;20526;-59
2023/02/12 09:10:41;;;;;;;8.43;1.80;;;;;;;-142.37;100.00;59669.53;5094005;28;20433;-59
2023/02/12 09:13:07;;;;;;;9.05;1.90;;;;;;;-142.37;100.00;59669.53;5092114;28;20457;-60
2023/02/12 09:15:41;;;;;;;13.60;1.88;;;;;;;-142.37;100.00;59669.53;5092773;28;20078;-61
2023/02/12 09:18:07;;;;;;;11.23;1.67;;;;;;;-142.37;100.00;59669.53;5092321;28;20059;-61
2023/02/12 09:20:35;;;;;;;6.57;1.00;;;;;;;-142.37;100.00;59669.53;5091746;28;20055;-60
2023/02/12 09:23:01;;;;;;;11.18;1.98;;;;;;;-142.37;100.00;59669.53;5092793;28;20480;-59
2023/02/12 09:25:27;;;;;;;6.93;1.27;;;;;;;-142.37;100.00;59669.53;5091911;28;20028;-59
2023/02/12 09:27:54;;;;;;;6.07;1.40;;;;;;;-142.37;100.00;59669.53;5093387;28;20437;-58
2023/02/12 09:30:20;;;;;;;9.38;1.48;;;;;;;-142.37;100.00;59669.53;5092783;28;20031;-59
2023/02/12 09:32:46;;;;;;;9.13;1.40;;;;;;;-142.37;100.00;59669.53;5093065;28;20345;-59
2023/02/12 09:35:11;;;;;;;7.18;1.77;;;;;;;-142.37;100.00;59669.53;5092799;28;20086;-60
2023/02/12 09:37:43;;;;;;;8.48;1.48;;;;;;;-142.37;100.00;59669.53;5093438;28;20039;-60
2023/02/12 09:40:17;;;;;;;11.50;2.10;;;;;;;-142.37;100.00;59669.53;5091658;28;20035;-60
2023/02/12 09:43:05;;;;;;;10.00;1.70;;;;;;;-142.37;100.00;59669.53;5093035;28;20117;-61
2023/02/12 09:45:38;;;;;;;6.25;1.40;;;;;;;-142.37;100.00;59669.53;5092566;28;20264;-59
2023/02/12 09:48:46;;;;;;;6.55;1.50;;;;;;;-142.37;100.00;59669.53;5092600;28;20032;-60
2023/02/12 09:51:12;;;;;;;5.60;1.15;;;;;;;-142.37;100.00;59669.53;5079796;28;20127;-59
2023/02/12 09:53:44;;;;;;;4.72;0.70;;;;;;;-142.37;100.00;59669.53;5091114;28;20105;-60
2023/02/12 09:56:17;;;;;;;8.95;1.45;;;;;;;-142.37;100.00;59669.53;5090941;28;20422;-59
2023/02/12 09:58:52;;;;;;;8.10;1.25;;;;;;;-142.37;100.00;59669.53;5092949;28;20024;-60
2023/02/12 10:01:20;;;;;;;8.63;1.65;;;;;;;-142.37;100.00;59669.53;5090883;28;20028;-60
2023/02/12 10:03:49;;;;;;;9.52;1.73;;;;;;;-142.37;100.00;59669.53;5093037;28;20035;-57
2023/02/12 10:06:25;;;;;;;8.02;1.50;;;;;;;-142.37;100.00;59669.53;5091302;28;20032;-61
2023/02/12 10:09:21;;;;;;;5.35;1.20;;;;;;;-142.37;100.00;59669.53;5092301;28;20024;-60
2023/02/12 10:12:22;;;;;;;12.80;2.42;;;;;;;-142.37;100.00;59669.53;5090816;28;20032;-60
2023/02/12 10:15:24;;;;;;;7.38;1.55;;;;;;;-142.37;100.00;59669.53;5090561;28;20056;-59
2023/02/12 10:18:15;;;;;;;4.15;1.38;;;;;;;-142.37;100.00;59669.53;5090663;28;20024;-59
2023/02/12 10:21:12;;;;;;;7.72;1.60;;;;;;;-142.37;100.00;59669.53;5092222;28;20480;-59
2023/02/12 10:23:59;;;;;;;8.80;1.73;;;;;;;-142.37;100.00;59669.53;5091903;28;20040;-61
2023/02/12 10:26:44;;;;;;;9.85;1.80;;;;;;;-142.37;100.00;59669.53;5090556;28;20499;-59
2023/02/12 10:29:21;;;;;;;11.80;2.65;;;;;;;-142.37;100.00;59669.53;5091784;28;20020;-60
2023/02/12 10:32:12;;;;;;;12.50;1.73;;;;;;;-142.37;100.00;59669.53;5091859;28;20515;-61
2023/02/12 10:34:41;;;;;;;9.45;2.92;;;;;;;-142.37;100.00;59669.53;5091858;28;20109;-59
2023/02/12 10:37:13;;;;;;;7.07;1.75;;;;;;;-142.37;100.00;59669.53;5089594;28;20035;-60
2023/02/12 10:39:48;;;;;;;10.55;2.20;;;;;;;-142.37;100.00;59669.53;5091532;28;20046;-60
2023/02/12 10:42:20;;;;;;;8.18;1.92;;;;;;;-142.37;100.00;59669.53;5090074;28;20499;-60
2023/02/12 10:44:46;;;;;;;10.07;2.38;;;;;;;-142.37;100.00;59669.53;5091718;28;20039;-60
2023/02/12 10:47:20;;;;;;;7.85;2.25;;;;;;;-142.37;100.00;59669.53;5091865;28;20024;-59
2023/02/12 10:49:58;;;;;;;10.40;2.15;;;;;;;-142.37;100.00;59669.53;5091406;28;20502;-62
2023/02/12 10:52:46;;;;;;;13.93;2.97;;;;;;;-142.37;100.00;59669.53;5092120;28;20035;-59
2023/02/12 10:55:32;;;;;;;10.05;1.90;;;;;;;-142.37;100.00;59669.53;5090156;28;20105;-64
2023/02/12 10:58:00;;;;;;;16.15;2.50;;;;;;;-142.37;100.00;59669.53;5090740;28;20115;-60
2023/02/12 11:00:34;;;;;;;15.75;1.77;;;;;;;-142.37;100.00;59669.53;5089952;28;20061;-60
2023/02/12 11:03:11;;;;;;;10.95;1.67;;;;;;;-142.37;100.00;59669.53;5089746;28;20024;-61
2023/02/12 11:05:41;;;;;;;21.52;3.35;;;;;;;-142.37;100.00;59669.53;5090964;28;20028;-61
2023/02/12 11:08:24;;;;;;;5.65;2.30;;;;;;;-142.37;100.00;59669.53;5091504;28;20401;-60
2023/02/12 11:10:51;;;;;;;13.63;3.03;;;;;;;-142.37;100.00;59669.53;5092469;28;20078;-60
2023/02/12 11:13:36;;;;;;;8.70;2.15;;;;;;;-142.37;100.00;59669.53;5091671;28;20027;-59
2023/02/12 11:16:02;;;;;;;9.43;3.05;;;;;;;-142.37;100.00;59669.53;5095530;28;20488;-60
2023/02/12 11:18:32;;;;;;;8.73;1.85;;;;;;;-142.37;100.00;59669.53;5095863;28;20868;-61
2023/02/12 11:20:58;;;;;;;12.95;2.40;;;;;;;-142.37;100.00;59669.53;5094151;28;20027;-58
2023/02/12 11:23:37;;;;;;;9.05;2.45;;;;;;;-142.37;100.00;59669.53;5093993;28;20054;-62
2023/02/12 11:26:19;;;;;;;9.43;2.63;;;;;;;-142.37;100.00;59669.53;5093371;28;20067;-60
2023/02/12 11:29:15;;;;;;;11.27;2.28;;;;;;;-142.37;100.00;59669.53;5093433;28;20131;-60
2023/02/12 11:31:41;;;;;;;14.65;2.92;;;;;;;-142.37;100.00;59669.53;5095362;28;20020;-61